AFV372 EGLL-FQMA
Flight info
| Callsign | AFV372 |
|---|---|
| Flight time | N/A |
| Altitude | 40000 |
| Route | MAXIT Y803 MID UL612 VEULE/N0485F350 UL612 RESMI UM728 KETEX DCT ADEKA DCT FJR UM731 AMFAC DCT NOLVI DCT SALMA UG6 ANB/N0482F370 UG6 DIMAO UZ147 ROGBA UG869 NAMAT UG655 FARES G655 SEB M214 GARIN UG655 KEKAV/N0488F390 UG655 KGI UM215 IKTAL UG655 MOTAM UM215 VLS UG652 GADBA UB529 VMV/N0482F400 UB529 ATUSI ATUSI1A |
| Aircraft | B789/H-SDE1E2E3FGHIJ2J3J4J5M1RWXY/LB1D1 |
Departure
| Time | N/A |
|---|---|
| Airport | London Heathrow Airport (EGLL) |
Arrival
| Time | 2026-04-25 11:13 |
|---|---|
| Airport | Maputo Airport (FQMA) |
| Time | Latitude | Longitude | Altitude | Speed | Heading |
|---|---|---|---|---|---|
| 2026-04-25 10:55 | -25.27923 | 32.75209 | 38333 ft | 502 kts | 156° |
| 2026-04-25 10:56 | -25.31032 | 32.77030 | 36295 ft | 511 kts | 156° |
| 2026-04-25 10:56 | -25.34194 | 32.78881 | 34434 ft | 517 kts | 155° |
| 2026-04-25 10:56 | -25.37373 | 32.80753 | 32456 ft | 518 kts | 155° |
| 2026-04-25 10:56 | -25.40552 | 32.82629 | 30573 ft | 515 kts | 155° |
| 2026-04-25 10:57 | -25.43643 | 32.84401 | 29371 ft | 493 kts | 160° |
| 2026-04-25 10:57 | -25.46857 | 32.85624 | 27412 ft | 484 kts | 172° |
| 2026-04-25 10:57 | -25.50144 | 32.86167 | 25566 ft | 472 kts | 180° |
| 2026-04-25 10:57 | -25.53387 | 32.86113 | 23834 ft | 460 kts | 189° |
| 2026-04-25 10:58 | -25.56497 | 32.85509 | 21863 ft | 448 kts | 196° |
| 2026-04-25 10:58 | -25.59493 | 32.84711 | 19970 ft | 439 kts | 195° |
| 2026-04-25 10:58 | -25.62442 | 32.83936 | 18137 ft | 431 kts | 194° |
| 2026-04-25 10:58 | -25.65333 | 32.83183 | 16169 ft | 423 kts | 195° |
| 2026-04-25 10:59 | -25.68169 | 32.82442 | 14328 ft | 414 kts | 195° |
| 2026-04-25 10:59 | -25.70935 | 32.81714 | 12375 ft | 404 kts | 195° |
| 2026-04-25 10:59 | -25.73645 | 32.81001 | 10495 ft | 394 kts | 194° |
| 2026-04-25 10:59 | -25.76281 | 32.80308 | 8562 ft | 384 kts | 194° |
| 2026-04-25 11:00 | -25.78829 | 32.79638 | 7244 ft | 364 kts | 193° |
| 2026-04-25 11:00 | -25.81189 | 32.79018 | 6546 ft | 339 kts | 192° |
| 2026-04-25 11:00 | -25.83425 | 32.78259 | 5856 ft | 336 kts | 207° |
| 2026-04-25 11:00 | -25.84674 | 32.77326 | 5858 ft | 317 kts | 213° |
| 2026-04-25 11:01 | -25.86521 | 32.76037 | 5480 ft | 314 kts | 208° |
| 2026-04-25 11:01 | -25.88865 | 32.74473 | 4833 ft | 305 kts | 210° |
| 2026-04-25 11:01 | -25.90033 | 32.73636 | 4497 ft | 300 kts | 211° |
| 2026-04-25 11:01 | -25.91764 | 32.72371 | 3987 ft | 294 kts | 211° |
| 2026-04-25 11:02 | -25.93469 | 32.71148 | 3479 ft | 289 kts | 210° |
| 2026-04-25 11:02 | -25.95138 | 32.69965 | 3164 ft | 278 kts | 210° |
| 2026-04-25 11:02 | -25.97237 | 32.68469 | 2813 ft | 267 kts | 210° |
| 2026-04-25 11:02 | -25.98786 | 32.67361 | 2639 ft | 262 kts | 210° |
| 2026-04-25 11:03 | -26.00317 | 32.66268 | 2419 ft | 261 kts | 210° |
| 2026-04-25 11:03 | -26.01337 | 32.65538 | 2279 ft | 255 kts | 210° |
| 2026-04-25 11:03 | -26.02824 | 32.64475 | 2067 ft | 250 kts | 210° |
| 2026-04-25 11:03 | -26.04274 | 32.63439 | 1999 ft | 247 kts | 210° |
| 2026-04-25 11:04 | -26.04900 | 32.62992 | 1999 ft | 248 kts | 210° |
| 2026-04-25 11:04 | -26.06404 | 32.61917 | 1999 ft | 247 kts | 210° |
| 2026-04-25 11:05 | -26.07850 | 32.60882 | 1994 ft | 248 kts | 210° |
| 2026-04-25 11:05 | -26.09279 | 32.59859 | 1992 ft | 248 kts | 210° |
| 2026-04-25 11:05 | -26.10715 | 32.58822 | 1995 ft | 246 kts | 212° |
| 2026-04-25 11:05 | -26.11872 | 32.57421 | 1988 ft | 250 kts | 241° |
| 2026-04-25 11:06 | -26.12276 | 32.55535 | 1998 ft | 256 kts | 270° |
| 2026-04-25 11:06 | -26.11796 | 32.53632 | 2001 ft | 258 kts | 297° |
| 2026-04-25 11:06 | -26.10927 | 32.51859 | 2002 ft | 265 kts | 298° |
| 2026-04-25 11:06 | -26.09974 | 32.50110 | 1997 ft | 263 kts | 308° |
| 2026-04-25 11:07 | -26.08489 | 32.48993 | 1965 ft | 262 kts | 347° |
| 2026-04-25 11:07 | -26.06708 | 32.48862 | 1964 ft | 254 kts | 7° |
| 2026-04-25 11:07 | -26.05045 | 32.49262 | 1956 ft | 237 kts | 23° |
| 2026-04-25 11:07 | -26.03614 | 32.50081 | 1833 ft | 223 kts | 34° |
| 2026-04-25 11:08 | -26.02331 | 32.50947 | 1849 ft | 205 kts | 31° |
| 2026-04-25 11:08 | -26.01153 | 32.51674 | 1857 ft | 184 kts | 29° |
| 2026-04-25 11:08 | -26.00125 | 32.52322 | 1749 ft | 160 kts | 36° |
| 2026-04-25 11:08 | -25.99246 | 32.52933 | 1693 ft | 138 kts | 36° |
| 2026-04-25 11:09 | -25.98441 | 32.53453 | 1479 ft | 130 kts | 34° |
| 2026-04-25 11:09 | -25.97644 | 32.53928 | 1234 ft | 130 kts | 28° |
| 2026-04-25 11:09 | -25.97040 | 32.54252 | 1067 ft | 126 kts | 31° |
| 2026-04-25 11:12 | -25.96985 | 32.54284 | 1048 ft | 126 kts | 31° |
| 2026-04-25 11:12 | -25.96253 | 32.54705 | 718 ft | 138 kts | 22° |
| 2026-04-25 11:12 | -25.95449 | 32.55174 | 600 ft | 124 kts | 25° |
| 2026-04-25 11:12 | -25.94741 | 32.55615 | 498 ft | 110 kts | 27° |
| 2026-04-25 11:13 | -25.94102 | 32.56026 | 347 ft | 101 kts | 25° |
| 2026-04-25 11:13 | -25.93598 | 32.56283 | 145 ft | 8 kts | 11° |
| 2026-04-25 11:13 | -25.93600 | 32.56287 | 124 ft | 0 kts | 0° |